Begesin Airstrip


Codes: AYBS/
Name: Begesin Airstrip
City: Begesin
Country: Papua New Guinea
Elevation: 980 ft.

Photos at Begesin Airstrip


   Photos courtesy of SpottingLog. You can add your own sightings and photos by signing up for a free trial today.



No photos found.

Weather at Begesin Airstrip


Time (UTC)DescriptionTempratureWindCloud coverageVisibilityPressureHumidity
16-Jun-2024 03:00Scattered Clouds29°C2 mph, 30%10000m1011hPa60%
16-Jun-2024 06:00Scattered Clouds28°C7 mph, 41%10000m1009hPa64%
16-Jun-2024 09:00Light Rain23°C4 mph, E78%10000m1011hPa93%
16-Jun-2024 12:00Light Rain22°C2 mph, E75%10000m1012hPa97%
16-Jun-2024 15:00Light Rain21°C2 mph, SE35%10000m1011hPa97%
16-Jun-2024 18:00Scattered Clouds21°C2 mph, SE45%10000m1010hPa97%
16-Jun-2024 21:00Scattered Clouds21°C2 mph, SE30%10000m1011hPa96%
17-Jun-2024 00:00Few Clouds28°C2 mph, SE16%10000m1011hPa62%
17-Jun-2024 03:00Clear Sky32°C4 mph, E0%10000m1008hPa46%
17-Jun-2024 06:00Clear Sky29°C7 mph, NE0%10000m1007hPa61%
17-Jun-2024 09:00Light Rain23°C4 mph, E0%10000m1010hPa92%
17-Jun-2024 12:00Light Rain21°C2 mph, E21%10000m1012hPa99%
17-Jun-2024 15:00Light Rain21°C2 mph, SE85%10000m1011hPa100%
17-Jun-2024 18:00Light Rain21°C2 mph, SE64%10000m1011hPa99%
17-Jun-2024 21:00Broken Clouds21°C2 mph, SE65%10000m1011hPa98%
18-Jun-2024 00:00Broken Clouds27°C2 mph, SE57%10000m1011hPa65%
18-Jun-2024 03:00Broken Clouds31°C2 mph, E66%10000m1008hPa47%
18-Jun-2024 06:00Broken Clouds28°C7 mph, NE82%10000m1007hPa65%
18-Jun-2024 09:00Light Rain22°C4 mph, E86%10000m1009hPa95%
18-Jun-2024 12:00Light Rain21°C2 mph, E63%10000m1011hPa97%
18-Jun-2024 15:00Light Rain21°C2 mph, SE89%10000m1010hPa99%
18-Jun-2024 18:00Light Rain21°C2 mph, SE95%10000m1009hPa100%
18-Jun-2024 21:00Light Rain20°C2 mph, SE100%10000m1011hPa99%
19-Jun-2024 00:00Overcast Clouds27°C2 mph, SE100%10000m1011hPa68%
19-Jun-2024 03:00Overcast Clouds31°C2 mph, E100%10000m1008hPa49%
19-Jun-2024 06:00Light Rain27°C7 mph, E100%10000m1007hPa75%
19-Jun-2024 09:00Light Rain22°C4 mph, E90%10000m1009hPa98%
19-Jun-2024 12:00Moderate Rain21°C2 mph, E77%3824m1011hPa99%
19-Jun-2024 15:00Light Rain21°C2 mph, SE73%10000m1010hPa99%
19-Jun-2024 18:00Light Rain20°C2 mph, SE85%10000m1009hPa99%
19-Jun-2024 21:00Light Rain20°C2 mph, SE99%10000m1010hPa98%
20-Jun-2024 00:00Overcast Clouds27°C2 mph, S100%10000m1010hPa65%
20-Jun-2024 03:00Overcast Clouds32°C2 mph, W100%10000m1007hPa44%
20-Jun-2024 06:00Light Rain29°C2 mph, E90%10000m1006hPa64%
20-Jun-2024 09:00Moderate Rain22°C2 mph, E99%4688m1009hPa99%
20-Jun-2024 12:00Moderate Rain21°C2 mph, SE99%10000m1012hPa100%
20-Jun-2024 15:00Light Rain21°C2 mph, S97%10000m1010hPa100%
20-Jun-2024 18:00Overcast Clouds20°C0 mph, SW95%10000m1009hPa99%
20-Jun-2024 21:00Overcast Clouds20°C2 mph, SW99%10000m1011hPa98%
21-Jun-2024 00:00Overcast Clouds25°C2 mph, SW99%10000m1011hPa74%